sensor_id;sensor_type;location;lat;lon;timestamp;P1;durP1;ratioP1;P2;durP2;ratioP2
59074;SDS011;44860;53.020;6.738;2022-10-16T00:00:31;12.52;;;2.88;;
59074;SDS011;44860;53.020;6.738;2022-10-16T00:02:57;11.30;;;2.78;;
59074;SDS011;44860;53.020;6.738;2022-10-16T00:05:23;5.40;;;2.50;;
59074;SDS011;44860;53.020;6.738;2022-10-16T00:07:49;7.25;;;2.25;;
59074;SDS011;44860;53.020;6.738;2022-10-16T00:10:14;8.55;;;2.80;;
59074;SDS011;44860;53.020;6.738;2022-10-16T00:12:40;8.30;;;2.47;;
59074;SDS011;44860;53.020;6.738;2022-10-16T00:15:06;5.50;;;2.25;;
59074;SDS011;44860;53.020;6.738;2022-10-16T00:17:32;8.27;;;2.72;;
59074;SDS011;44860;53.020;6.738;2022-10-16T00:19:57;11.95;;;2.53;;
59074;SDS011;44860;53.020;6.738;2022-10-16T00:22:23;4.85;;;2.40;;
59074;SDS011;44860;53.020;6.738;2022-10-16T00:24:49;8.15;;;2.60;;
59074;SDS011;44860;53.020;6.738;2022-10-16T00:27:15;7.60;;;2.53;;
59074;SDS011;44860;53.020;6.738;2022-10-16T00:29:41;7.15;;;2.35;;
59074;SDS011;44860;53.020;6.738;2022-10-16T00:32:07;9.32;;;2.50;;
59074;SDS011;44860;53.020;6.738;2022-10-16T00:34:33;8.20;;;2.50;;
59074;SDS011;44860;53.020;6.738;2022-10-16T00:36:58;11.48;;;2.40;;
59074;SDS011;44860;53.020;6.738;2022-10-16T00:39:24;7.38;;;2.53;;
59074;SDS011;44860;53.020;6.738;2022-10-16T00:41:50;9.27;;;2.70;;
59074;SDS011;44860;53.020;6.738;2022-10-16T00:47:07;8.02;;;2.67;;
59074;SDS011;44860;53.020;6.738;2022-10-16T00:49:40;10.20;;;2.85;;
59074;SDS011;44860;53.020;6.738;2022-10-16T00:52:06;13.70;;;2.60;;
59074;SDS011;44860;53.020;6.738;2022-10-16T00:54:32;9.73;;;2.50;;
59074;SDS011;44860;53.020;6.738;2022-10-16T00:57:03;7.57;;;3.08;;
59074;SDS011;44860;53.020;6.738;2022-10-16T00:59:36;5.93;;;2.67;;
59074;SDS011;44860;53.020;6.738;2022-10-16T01:02:04;8.93;;;2.90;;
59074;SDS011;44860;53.020;6.738;2022-10-16T01:04:35;7.60;;;2.30;;
59074;SDS011;44860;53.020;6.738;2022-10-16T01:12:23;9.98;;;2.85;;
59074;SDS011;44860;53.020;6.738;2022-10-16T01:20:01;7.93;;;2.33;;
59074;SDS011;44860;53.020;6.738;2022-10-16T01:22:46;5.90;;;2.13;;
59074;SDS011;44860;53.020;6.738;2022-10-16T01:28:15;8.25;;;2.22;;
59074;SDS011;44860;53.020;6.738;2022-10-16T01:30:44;8.25;;;2.72;;
59074;SDS011;44860;53.020;6.738;2022-10-16T01:33:21;5.85;;;2.42;;
59074;SDS011;44860;53.020;6.738;2022-10-16T01:35:54;10.48;;;2.30;;
59074;SDS011;44860;53.020;6.738;2022-10-16T01:41:08;8.02;;;2.63;;
59074;SDS011;44860;53.020;6.738;2022-10-16T01:43:39;5.82;;;2.55;;
59074;SDS011;44860;53.020;6.738;2022-10-16T01:46:08;7.93;;;2.10;;
59074;SDS011;44860;53.020;6.738;2022-10-16T01:48:35;6.72;;;2.47;;
59074;SDS011;44860;53.020;6.738;2022-10-16T01:51:11;5.68;;;2.47;;
59074;SDS011;44860;53.020;6.738;2022-10-16T01:53:39;6.57;;;2.60;;
59074;SDS011;44860;53.020;6.738;2022-10-16T01:56:07;5.15;;;2.28;;
59074;SDS011;44860;53.020;6.738;2022-10-16T01:58:36;6.05;;;2.35;;
59074;SDS011;44860;53.020;6.738;2022-10-16T02:01:06;7.80;;;2.50;;
59074;SDS011;44860;53.020;6.738;2022-10-16T02:03:36;7.40;;;2.42;;
59074;SDS011;44860;53.020;6.738;2022-10-16T02:06:06;8.63;;;2.80;;
59074;SDS011;44860;53.020;6.738;2022-10-16T02:08:32;10.40;;;2.80;;
59074;SDS011;44860;53.020;6.738;2022-10-16T02:10:58;7.00;;;2.45;;
59074;SDS011;44860;53.020;6.738;2022-10-16T02:13:36;6.85;;;2.47;;
59074;SDS011;44860;53.020;6.738;2022-10-16T02:16:12;7.40;;;2.40;;
59074;SDS011;44860;53.020;6.738;2022-10-16T02:18:39;8.27;;;2.75;;
59074;SDS011;44860;53.020;6.738;2022-10-16T02:26:28;5.22;;;2.22;;
59074;SDS011;44860;53.020;6.738;2022-10-16T02:29:00;8.73;;;2.80;;
59074;SDS011;44860;53.020;6.738;2022-10-16T02:31:31;5.60;;;2.30;;
59074;SDS011;44860;53.020;6.738;2022-10-16T02:33:59;8.93;;;2.65;;
59074;SDS011;44860;53.020;6.738;2022-10-16T02:36:27;7.82;;;2.70;;
59074;SDS011;44860;53.020;6.738;2022-10-16T02:38:54;7.53;;;2.78;;
59074;SDS011;44860;53.020;6.738;2022-10-16T02:41:21;4.72;;;2.72;;
59074;SDS011;44860;53.020;6.738;2022-10-16T02:43:48;10.90;;;2.92;;
59074;SDS011;44860;53.020;6.738;2022-10-16T02:46:14;5.90;;;2.53;;
59074;SDS011;44860;53.020;6.738;2022-10-16T02:48:40;6.75;;;2.50;;
59074;SDS011;44860;53.020;6.738;2022-10-16T02:51:06;6.70;;;2.60;;
59074;SDS011;44860;53.020;6.738;2022-10-16T02:53:31;5.55;;;2.40;;
59074;SDS011;44860;53.020;6.738;2022-10-16T02:55:57;5.72;;;2.70;;
59074;SDS011;44860;53.020;6.738;2022-10-16T02:58:22;7.53;;;2.72;;
59074;SDS011;44860;53.020;6.738;2022-10-16T03:00:48;6.28;;;2.70;;
59074;SDS011;44860;53.020;6.738;2022-10-16T03:03:14;5.47;;;3.10;;
59074;SDS011;44860;53.020;6.738;2022-10-16T03:05:39;6.28;;;2.60;;
59074;SDS011;44860;53.020;6.738;2022-10-16T03:08:05;7.18;;;2.80;;
59074;SDS011;44860;53.020;6.738;2022-10-16T03:10:31;6.65;;;2.55;;
59074;SDS011;44860;53.020;6.738;2022-10-16T03:12:56;7.38;;;2.65;;
59074;SDS011;44860;53.020;6.738;2022-10-16T03:15:22;7.07;;;3.03;;
59074;SDS011;44860;53.020;6.738;2022-10-16T03:17:47;7.30;;;2.70;;
59074;SDS011;44860;53.020;6.738;2022-10-16T03:20:13;8.30;;;2.63;;
59074;SDS011;44860;53.020;6.738;2022-10-16T03:22:39;6.63;;;2.75;;
59074;SDS011;44860;53.020;6.738;2022-10-16T03:25:04;5.93;;;2.45;;
59074;SDS011;44860;53.020;6.738;2022-10-16T03:27:30;7.00;;;2.70;;
59074;SDS011;44860;53.020;6.738;2022-10-16T03:29:56;6.70;;;2.92;;
59074;SDS011;44860;53.020;6.738;2022-10-16T03:32:21;7.20;;;3.03;;
59074;SDS011;44860;53.020;6.738;2022-10-16T03:34:49;8.60;;;2.75;;
59074;SDS011;44860;53.020;6.738;2022-10-16T03:37:15;8.77;;;2.90;;
59074;SDS011;44860;53.020;6.738;2022-10-16T03:39:41;8.80;;;2.70;;
59074;SDS011;44860;53.020;6.738;2022-10-16T03:42:06;6.50;;;2.60;;
59074;SDS011;44860;53.020;6.738;2022-10-16T03:44:32;4.95;;;2.40;;
59074;SDS011;44860;53.020;6.738;2022-10-16T03:46:58;8.40;;;2.80;;
59074;SDS011;44860;53.020;6.738;2022-10-16T03:49:23;5.78;;;2.90;;
59074;SDS011;44860;53.020;6.738;2022-10-16T03:51:49;5.57;;;2.55;;
59074;SDS011;44860;53.020;6.738;2022-10-16T03:54:14;8.82;;;2.80;;
59074;SDS011;44860;53.020;6.738;2022-10-16T03:56:40;8.48;;;2.80;;
59074;SDS011;44860;53.020;6.738;2022-10-16T03:59:06;5.53;;;2.50;;
59074;SDS011;44860;53.020;6.738;2022-10-16T04:01:31;4.78;;;2.60;;
59074;SDS011;44860;53.020;6.738;2022-10-16T04:03:57;4.40;;;2.53;;
59074;SDS011;44860;53.020;6.738;2022-10-16T04:06:23;5.65;;;2.55;;
59074;SDS011;44860;53.020;6.738;2022-10-16T04:08:48;7.53;;;2.95;;
59074;SDS011;44860;53.020;6.738;2022-10-16T04:11:14;5.95;;;2.60;;
59074;SDS011;44860;53.020;6.738;2022-10-16T04:13:39;5.85;;;2.53;;
59074;SDS011;44860;53.020;6.738;2022-10-16T04:16:06;4.18;;;2.70;;
59074;SDS011;44860;53.020;6.738;2022-10-16T04:18:32;8.02;;;3.03;;
59074;SDS011;44860;53.020;6.738;2022-10-16T04:21:02;5.10;;;2.38;;
59074;SDS011;44860;53.020;6.738;2022-10-16T04:23:29;4.68;;;2.50;;
59074;SDS011;44860;53.020;6.738;2022-10-16T04:25:54;6.45;;;3.05;;
59074;SDS011;44860;53.020;6.738;2022-10-16T04:28:20;3.97;;;2.60;;
59074;SDS011;44860;53.020;6.738;2022-10-16T04:30:46;4.70;;;2.70;;
59074;SDS011;44860;53.020;6.738;2022-10-16T04:33:11;5.45;;;2.78;;
59074;SDS011;44860;53.020;6.738;2022-10-16T04:35:38;7.13;;;2.67;;
59074;SDS011;44860;53.020;6.738;2022-10-16T04:38:03;4.75;;;2.70;;
59074;SDS011;44860;53.020;6.738;2022-10-16T04:40:29;9.85;;;3.20;;
59074;SDS011;44860;53.020;6.738;2022-10-16T04:42:58;4.22;;;2.70;;
59074;SDS011;44860;53.020;6.738;2022-10-16T04:45:24;5.03;;;3.10;;
59074;SDS011;44860;53.020;6.738;2022-10-16T04:47:50;6.63;;;3.13;;
59074;SDS011;44860;53.020;6.738;2022-10-16T04:50:15;7.25;;;3.47;;
59074;SDS011;44860;53.020;6.738;2022-10-16T04:52:41;6.70;;;3.30;;
59074;SDS011;44860;53.020;6.738;2022-10-16T04:55:07;6.70;;;3.20;;
59074;SDS011;44860;53.020;6.738;2022-10-16T04:57:33;5.88;;;3.20;;
59074;SDS011;44860;53.020;6.738;2022-10-16T04:59:58;8.20;;;3.28;;
59074;SDS011;44860;53.020;6.738;2022-10-16T05:02:24;8.05;;;3.20;;
59074;SDS011;44860;53.020;6.738;2022-10-16T05:04:51;8.00;;;3.17;;
59074;SDS011;44860;53.020;6.738;2022-10-16T05:07:16;5.70;;;3.30;;
59074;SDS011;44860;53.020;6.738;2022-10-16T05:09:42;5.45;;;2.95;;
59074;SDS011;44860;53.020;6.738;2022-10-16T05:12:08;5.65;;;3.30;;
59074;SDS011;44860;53.020;6.738;2022-10-16T05:14:33;6.22;;;3.38;;
59074;SDS011;44860;53.020;6.738;2022-10-16T05:16:59;8.30;;;3.58;;
59074;SDS011;44860;53.020;6.738;2022-10-16T05:19:25;8.82;;;3.30;;
59074;SDS011;44860;53.020;6.738;2022-10-16T05:21:51;7.72;;;3.70;;
59074;SDS011;44860;53.020;6.738;2022-10-16T05:24:16;7.55;;;3.42;;
59074;SDS011;44860;53.020;6.738;2022-10-16T05:26:42;7.63;;;3.50;;
59074;SDS011;44860;53.020;6.738;2022-10-16T05:29:08;6.55;;;3.60;;
59074;SDS011;44860;53.020;6.738;2022-10-16T05:31:34;9.27;;;3.80;;
59074;SDS011;44860;53.020;6.738;2022-10-16T05:34:00;8.32;;;3.35;;
59074;SDS011;44860;53.020;6.738;2022-10-16T05:36:27;7.60;;;3.60;;
59074;SDS011;44860;53.020;6.738;2022-10-16T05:38:52;9.52;;;3.58;;
59074;SDS011;44860;53.020;6.738;2022-10-16T05:41:18;9.23;;;3.55;;
59074;SDS011;44860;53.020;6.738;2022-10-16T05:43:46;7.50;;;3.38;;
59074;SDS011;44860;53.020;6.738;2022-10-16T05:46:13;5.90;;;3.60;;
59074;SDS011;44860;53.020;6.738;2022-10-16T05:48:38;6.25;;;3.60;;
59074;SDS011;44860;53.020;6.738;2022-10-16T05:51:05;7.25;;;3.80;;
59074;SDS011;44860;53.020;6.738;2022-10-16T05:53:33;6.57;;;3.45;;
59074;SDS011;44860;53.020;6.738;2022-10-16T05:56:00;8.65;;;3.92;;
59074;SDS011;44860;53.020;6.738;2022-10-16T05:58:34;7.38;;;3.70;;
59074;SDS011;44860;53.020;6.738;2022-10-16T06:01:02;6.78;;;3.88;;
59074;SDS011;44860;53.020;6.738;2022-10-16T06:03:29;9.45;;;3.80;;
59074;SDS011;44860;53.020;6.738;2022-10-16T06:05:55;6.03;;;3.33;;
59074;SDS011;44860;53.020;6.738;2022-10-16T06:08:21;7.65;;;3.40;;
59074;SDS011;44860;53.020;6.738;2022-10-16T06:10:48;7.47;;;3.70;;
59074;SDS011;44860;53.020;6.738;2022-10-16T06:13:14;9.43;;;3.60;;
59074;SDS011;44860;53.020;6.738;2022-10-16T06:15:41;8.90;;;3.90;;
59074;SDS011;44860;53.020;6.738;2022-10-16T06:18:08;5.38;;;3.45;;
59074;SDS011;44860;53.020;6.738;2022-10-16T06:20:35;7.03;;;3.70;;
59074;SDS011;44860;53.020;6.738;2022-10-16T06:23:01;8.50;;;3.47;;
59074;SDS011;44860;53.020;6.738;2022-10-16T06:25:27;6.40;;;3.33;;
59074;SDS011;44860;53.020;6.738;2022-10-16T06:27:52;7.07;;;3.60;;
59074;SDS011;44860;53.020;6.738;2022-10-16T06:30:18;7.57;;;3.22;;
59074;SDS011;44860;53.020;6.738;2022-10-16T06:32:43;11.73;;;3.72;;
59074;SDS011;44860;53.020;6.738;2022-10-16T06:35:09;5.78;;;3.22;;
59074;SDS011;44860;53.020;6.738;2022-10-16T06:37:34;5.95;;;3.33;;
59074;SDS011;44860;53.020;6.738;2022-10-16T06:40:00;5.78;;;3.30;;
59074;SDS011;44860;53.020;6.738;2022-10-16T06:42:29;8.98;;;3.35;;
59074;SDS011;44860;53.020;6.738;2022-10-16T06:44:55;7.00;;;3.10;;
59074;SDS011;44860;53.020;6.738;2022-10-16T06:47:20;6.40;;;3.42;;
59074;SDS011;44860;53.020;6.738;2022-10-16T06:49:46;8.38;;;3.33;;
59074;SDS011;44860;53.020;6.738;2022-10-16T06:52:12;7.60;;;3.20;;
59074;SDS011;44860;53.020;6.738;2022-10-16T06:54:37;7.50;;;3.33;;
59074;SDS011;44860;53.020;6.738;2022-10-16T06:57:03;4.78;;;3.13;;
59074;SDS011;44860;53.020;6.738;2022-10-16T06:59:29;6.63;;;2.97;;
59074;SDS011;44860;53.020;6.738;2022-10-16T07:01:54;5.65;;;3.10;;
59074;SDS011;44860;53.020;6.738;2022-10-16T07:04:20;6.38;;;3.10;;
59074;SDS011;44860;53.020;6.738;2022-10-16T07:06:45;6.60;;;2.92;;
59074;SDS011;44860;53.020;6.738;2022-10-16T07:09:11;5.05;;;2.72;;
59074;SDS011;44860;53.020;6.738;2022-10-16T07:11:38;6.32;;;2.90;;
59074;SDS011;44860;53.020;6.738;2022-10-16T07:14:04;5.72;;;2.95;;
59074;SDS011;44860;53.020;6.738;2022-10-16T07:16:31;5.70;;;3.20;;
59074;SDS011;44860;53.020;6.738;2022-10-16T07:18:58;6.03;;;3.35;;
59074;SDS011;44860;53.020;6.738;2022-10-16T07:21:26;5.35;;;2.70;;
59074;SDS011;44860;53.020;6.738;2022-10-16T07:23:56;8.18;;;2.97;;
59074;SDS011;44860;53.020;6.738;2022-10-16T07:26:24;6.45;;;2.80;;
59074;SDS011;44860;53.020;6.738;2022-10-16T07:28:50;5.07;;;2.70;;
59074;SDS011;44860;53.020;6.738;2022-10-16T07:31:17;7.00;;;2.75;;
59074;SDS011;44860;53.020;6.738;2022-10-16T07:33:44;10.43;;;6.10;;
59074;SDS011;44860;53.020;6.738;2022-10-16T07:36:12;5.95;;;3.25;;
59074;SDS011;44860;53.020;6.738;2022-10-16T07:38:38;6.07;;;3.00;;
59074;SDS011;44860;53.020;6.738;2022-10-16T07:41:05;4.70;;;2.42;;
59074;SDS011;44860;53.020;6.738;2022-10-16T07:43:32;7.65;;;2.75;;
59074;SDS011;44860;53.020;6.738;2022-10-16T07:45:58;4.85;;;2.53;;
59074;SDS011;44860;53.020;6.738;2022-10-16T07:48:26;6.38;;;2.45;;
59074;SDS011;44860;53.020;6.738;2022-10-16T07:50:56;3.72;;;2.50;;
59074;SDS011;44860;53.020;6.738;2022-10-16T07:53:25;5.40;;;2.92;;
59074;SDS011;44860;53.020;6.738;2022-10-16T07:55:52;7.15;;;3.25;;
59074;SDS011;44860;53.020;6.738;2022-10-16T07:58:21;7.00;;;2.63;;
59074;SDS011;44860;53.020;6.738;2022-10-16T08:00:47;5.50;;;2.97;;
59074;SDS011;44860;53.020;6.738;2022-10-16T08:03:12;6.90;;;2.47;;
59074;SDS011;44860;53.020;6.738;2022-10-16T08:05:38;7.05;;;2.47;;
59074;SDS011;44860;53.020;6.738;2022-10-16T08:08:04;6.35;;;2.33;;
59074;SDS011;44860;53.020;6.738;2022-10-16T08:10:29;5.50;;;2.33;;
59074;SDS011;44860;53.020;6.738;2022-10-16T08:12:56;5.30;;;2.38;;
59074;SDS011;44860;53.020;6.738;2022-10-16T08:15:22;6.03;;;2.10;;
59074;SDS011;44860;53.020;6.738;2022-10-16T08:17:55;5.53;;;2.40;;
59074;SDS011;44860;53.020;6.738;2022-10-16T08:20:22;6.97;;;2.30;;
59074;SDS011;44860;53.020;6.738;2022-10-16T08:22:47;5.32;;;2.28;;
59074;SDS011;44860;53.020;6.738;2022-10-16T08:25:13;5.22;;;2.20;;
59074;SDS011;44860;53.020;6.738;2022-10-16T08:27:38;5.65;;;2.10;;
59074;SDS011;44860;53.020;6.738;2022-10-16T08:30:04;5.68;;;2.03;;
59074;SDS011;44860;53.020;6.738;2022-10-16T08:32:30;6.60;;;2.10;;
59074;SDS011;44860;53.020;6.738;2022-10-16T08:34:56;6.47;;;1.92;;
59074;SDS011;44860;53.020;6.738;2022-10-16T08:37:21;6.55;;;2.30;;
59074;SDS011;44860;53.020;6.738;2022-10-16T08:39:47;6.03;;;1.60;;
59074;SDS011;44860;53.020;6.738;2022-10-16T08:45:09;8.25;;;2.47;;
59074;SDS011;44860;53.020;6.738;2022-10-16T08:50:30;3.40;;;1.67;;
59074;SDS011;44860;53.020;6.738;2022-10-16T08:52:58;6.53;;;1.77;;
59074;SDS011;44860;53.020;6.738;2022-10-16T08:55:34;6.07;;;1.80;;
59074;SDS011;44860;53.020;6.738;2022-10-16T08:58:39;4.07;;;1.38;;
59074;SDS011;44860;53.020;6.738;2022-10-16T09:01:03;4.75;;;1.45;;
59074;SDS011;44860;53.020;6.738;2022-10-16T09:12:00;5.35;;;1.80;;
59074;SDS011;44860;53.020;6.738;2022-10-16T09:14:36;6.07;;;1.52;;
59074;SDS011;44860;53.020;6.738;2022-10-16T09:20:09;6.15;;;1.60;;
59074;SDS011;44860;53.020;6.738;2022-10-16T09:23:11;7.93;;;2.05;;
59074;SDS011;44860;53.020;6.738;2022-10-16T09:25:41;6.82;;;2.50;;
59074;SDS011;44860;53.020;6.738;2022-10-16T09:28:09;7.00;;;2.00;;
59074;SDS011;44860;53.020;6.738;2022-10-16T09:30:35;7.00;;;2.28;;
59074;SDS011;44860;53.020;6.738;2022-10-16T09:33:02;7.88;;;1.90;;
59074;SDS011;44860;53.020;6.738;2022-10-16T09:35:33;10.43;;;2.47;;
59074;SDS011;44860;53.020;6.738;2022-10-16T09:38:27;8.98;;;2.13;;
59074;SDS011;44860;53.020;6.738;2022-10-16T09:40:55;9.55;;;2.30;;
59074;SDS011;44860;53.020;6.738;2022-10-16T09:46:02;8.77;;;2.13;;
59074;SDS011;44860;53.020;6.738;2022-10-16T09:48:42;12.77;;;2.70;;
59074;SDS011;44860;53.020;6.738;2022-10-16T09:51:42;9.20;;;2.10;;
59074;SDS011;44860;53.020;6.738;2022-10-16T09:56:34;9.05;;;1.85;;
59074;SDS011;44860;53.020;6.738;2022-10-16T09:59:10;11.70;;;2.22;;
59074;SDS011;44860;53.020;6.738;2022-10-16T10:01:50;10.20;;;2.47;;
59074;SDS011;44860;53.020;6.738;2022-10-16T10:04:18;11.02;;;2.10;;
59074;SDS011;44860;53.020;6.738;2022-10-16T10:06:46;12.68;;;2.20;;
59074;SDS011;44860;53.020;6.738;2022-10-16T10:09:20;14.55;;;2.60;;
59074;SDS011;44860;53.020;6.738;2022-10-16T10:11:55;9.82;;;2.35;;
59074;SDS011;44860;53.020;6.738;2022-10-16T10:14:26;8.70;;;2.25;;
59074;SDS011;44860;53.020;6.738;2022-10-16T10:19:29;9.77;;;2.28;;
59074;SDS011;44860;53.020;6.738;2022-10-16T10:22:11;11.50;;;2.38;;
59074;SDS011;44860;53.020;6.738;2022-10-16T10:27:21;11.57;;;2.40;;
59074;SDS011;44860;53.020;6.738;2022-10-16T10:32:37;12.48;;;2.45;;
59074;SDS011;44860;53.020;6.738;2022-10-16T10:35:37;9.57;;;2.35;;
59074;SDS011;44860;53.020;6.738;2022-10-16T10:38:39;14.30;;;2.78;;
59074;SDS011;44860;53.020;6.738;2022-10-16T10:46:51;10.63;;;2.20;;
59074;SDS011;44860;53.020;6.738;2022-10-16T10:49:55;10.80;;;2.03;;
59074;SDS011;44860;53.020;6.738;2022-10-16T10:52:55;9.75;;;1.98;;
59074;SDS011;44860;53.020;6.738;2022-10-16T10:55:43;10.70;;;2.53;;
59074;SDS011;44860;53.020;6.738;2022-10-16T11:01:16;12.30;;;2.55;;
59074;SDS011;44860;53.020;6.738;2022-10-16T11:04:08;11.55;;;2.40;;
59074;SDS011;44860;53.020;6.738;2022-10-16T11:06:55;13.00;;;2.38;;
59074;SDS011;44860;53.020;6.738;2022-10-16T11:09:41;5.63;;;1.80;;
59074;SDS011;44860;53.020;6.738;2022-10-16T11:12:31;10.63;;;2.70;;
59074;SDS011;44860;53.020;6.738;2022-10-16T11:17:38;11.85;;;2.17;;
59074;SDS011;44860;53.020;6.738;2022-10-16T11:23:14;11.15;;;2.10;;
59074;SDS011;44860;53.020;6.738;2022-10-16T11:25:45;7.93;;;1.90;;
59074;SDS011;44860;53.020;6.738;2022-10-16T11:28:17;15.32;;;2.35;;
59074;SDS011;44860;53.020;6.738;2022-10-16T11:31:00;10.27;;;2.22;;
59074;SDS011;44860;53.020;6.738;2022-10-16T11:41:55;9.38;;;2.00;;
59074;SDS011;44860;53.020;6.738;2022-10-16T11:53:04;11.40;;;2.53;;
59074;SDS011;44860;53.020;6.738;2022-10-16T11:55:48;14.00;;;2.03;;
59074;SDS011;44860;53.020;6.738;2022-10-16T12:04:04;11.60;;;2.38;;
59074;SDS011;44860;53.020;6.738;2022-10-16T12:09:31;10.50;;;2.60;;
59074;SDS011;44860;53.020;6.738;2022-10-16T12:11:59;8.10;;;2.10;;
59074;SDS011;44860;53.020;6.738;2022-10-16T12:17:01;12.45;;;2.70;;
59074;SDS011;44860;53.020;6.738;2022-10-16T12:19:31;13.48;;;2.20;;
59074;SDS011;44860;53.020;6.738;2022-10-16T12:22:01;11.32;;;2.28;;
59074;SDS011;44860;53.020;6.738;2022-10-16T12:24:39;10.07;;;2.17;;
59074;SDS011;44860;53.020;6.738;2022-10-16T12:29:57;10.65;;;2.20;;
59074;SDS011;44860;53.020;6.738;2022-10-16T12:34:53;10.43;;;2.03;;
59074;SDS011;44860;53.020;6.738;2022-10-16T12:37:26;13.75;;;2.22;;
59074;SDS011;44860;53.020;6.738;2022-10-16T12:39:55;9.77;;;1.85;;
59074;SDS011;44860;53.020;6.738;2022-10-16T12:44:51;9.18;;;1.73;;
59074;SDS011;44860;53.020;6.738;2022-10-16T12:47:35;11.20;;;2.22;;
59074;SDS011;44860;53.020;6.738;2022-10-16T12:50:03;12.75;;;2.40;;
59074;SDS011;44860;53.020;6.738;2022-10-16T12:52:47;9.70;;;2.38;;
59074;SDS011;44860;53.020;6.738;2022-10-16T12:55:17;12.93;;;2.17;;
59074;SDS011;44860;53.020;6.738;2022-10-16T13:00:50;11.18;;;1.88;;
59074;SDS011;44860;53.020;6.738;2022-10-16T13:03:34;9.75;;;1.92;;
59074;SDS011;44860;53.020;6.738;2022-10-16T13:19:56;12.15;;;2.17;;
59074;SDS011;44860;53.020;6.738;2022-10-16T13:22:26;11.15;;;2.08;;
59074;SDS011;44860;53.020;6.738;2022-10-16T13:25:09;11.80;;;2.17;;
59074;SDS011;44860;53.020;6.738;2022-10-16T13:28:05;13.80;;;2.28;;
59074;SDS011;44860;53.020;6.738;2022-10-16T13:33:42;10.25;;;2.58;;
59074;SDS011;44860;53.020;6.738;2022-10-16T13:36:47;10.48;;;2.45;;
59074;SDS011;44860;53.020;6.738;2022-10-16T13:41:39;9.93;;;1.70;;
59074;SDS011;44860;53.020;6.738;2022-10-16T13:44:08;8.40;;;1.70;;
59074;SDS011;44860;53.020;6.738;2022-10-16T13:46:40;11.98;;;1.75;;
59074;SDS011;44860;53.020;6.738;2022-10-16T13:49:13;14.68;;;2.22;;
59074;SDS011;44860;53.020;6.738;2022-10-16T13:51:41;11.10;;;2.28;;
59074;SDS011;44860;53.020;6.738;2022-10-16T13:54:18;13.73;;;2.55;;
59074;SDS011;44860;53.020;6.738;2022-10-16T13:56:44;10.52;;;2.20;;
59074;SDS011;44860;53.020;6.738;2022-10-16T13:59:26;8.85;;;2.30;;
59074;SDS011;44860;53.020;6.738;2022-10-16T14:01:57;10.68;;;2.20;;
59074;SDS011;44860;53.020;6.738;2022-10-16T14:04:25;12.13;;;2.10;;
59074;SDS011;44860;53.020;6.738;2022-10-16T14:06:55;8.68;;;2.38;;
59074;SDS011;44860;53.020;6.738;2022-10-16T14:09:22;9.98;;;1.83;;
59074;SDS011;44860;53.020;6.738;2022-10-16T14:11:54;10.07;;;2.20;;
59074;SDS011;44860;53.020;6.738;2022-10-16T14:14:23;10.55;;;2.13;;
59074;SDS011;44860;53.020;6.738;2022-10-16T14:16:52;11.73;;;2.42;;
59074;SDS011;44860;53.020;6.738;2022-10-16T14:19:25;11.85;;;2.20;;
59074;SDS011;44860;53.020;6.738;2022-10-16T14:21:53;9.70;;;2.20;;
59074;SDS011;44860;53.020;6.738;2022-10-16T14:24:22;9.65;;;2.10;;
59074;SDS011;44860;53.020;6.738;2022-10-16T14:26:59;10.05;;;1.85;;
59074;SDS011;44860;53.020;6.738;2022-10-16T14:29:26;9.38;;;3.00;;
59074;SDS011;44860;53.020;6.738;2022-10-16T14:31:54;13.50;;;2.53;;
59074;SDS011;44860;53.020;6.738;2022-10-16T14:34:24;12.95;;;2.70;;
59074;SDS011;44860;53.020;6.738;2022-10-16T14:37:16;12.65;;;2.40;;
59074;SDS011;44860;53.020;6.738;2022-10-16T14:39:49;8.43;;;1.88;;
59074;SDS011;44860;53.020;6.738;2022-10-16T14:42:16;11.10;;;2.40;;
59074;SDS011;44860;53.020;6.738;2022-10-16T14:44:44;10.23;;;1.95;;
59074;SDS011;44860;53.020;6.738;2022-10-16T14:47:14;10.43;;;2.03;;
59074;SDS011;44860;53.020;6.738;2022-10-16T14:49:47;10.43;;;1.80;;
59074;SDS011;44860;53.020;6.738;2022-10-16T14:52:13;11.25;;;2.55;;
59074;SDS011;44860;53.020;6.738;2022-10-16T14:54:39;14.13;;;2.13;;
59074;SDS011;44860;53.020;6.738;2022-10-16T14:57:05;13.48;;;2.60;;
59074;SDS011;44860;53.020;6.738;2022-10-16T14:59:45;12.50;;;2.75;;
59074;SDS011;44860;53.020;6.738;2022-10-16T15:02:31;9.82;;;2.33;;
59074;SDS011;44860;53.020;6.738;2022-10-16T15:05:07;12.15;;;2.50;;
59074;SDS011;44860;53.020;6.738;2022-10-16T15:07:41;15.55;;;2.63;;
59074;SDS011;44860;53.020;6.738;2022-10-16T15:10:07;9.90;;;2.35;;
59074;SDS011;44860;53.020;6.738;2022-10-16T15:12:33;11.98;;;2.33;;
59074;SDS011;44860;53.020;6.738;2022-10-16T15:14:58;12.25;;;2.60;;
59074;SDS011;44860;53.020;6.738;2022-10-16T15:17:24;13.43;;;2.55;;
59074;SDS011;44860;53.020;6.738;2022-10-16T15:19:50;12.48;;;2.65;;
59074;SDS011;44860;53.020;6.738;2022-10-16T15:22:16;12.43;;;2.83;;
59074;SDS011;44860;53.020;6.738;2022-10-16T15:24:42;9.07;;;2.67;;
59074;SDS011;44860;53.020;6.738;2022-10-16T15:27:08;9.45;;;2.88;;
59074;SDS011;44860;53.020;6.738;2022-10-16T15:29:34;9.80;;;2.55;;
59074;SDS011;44860;53.020;6.738;2022-10-16T15:31:59;10.35;;;2.70;;
59074;SDS011;44860;53.020;6.738;2022-10-16T15:34:25;13.32;;;2.85;;
59074;SDS011;44860;53.020;6.738;2022-10-16T15:36:50;16.45;;;2.70;;
59074;SDS011;44860;53.020;6.738;2022-10-16T15:39:17;12.45;;;2.97;;
59074;SDS011;44860;53.020;6.738;2022-10-16T15:41:45;10.57;;;2.60;;
59074;SDS011;44860;53.020;6.738;2022-10-16T15:44:15;9.57;;;2.15;;
59074;SDS011;44860;53.020;6.738;2022-10-16T15:46:42;15.60;;;2.78;;
59074;SDS011;44860;53.020;6.738;2022-10-16T15:49:07;11.80;;;2.17;;
59074;SDS011;44860;53.020;6.738;2022-10-16T15:51:36;12.85;;;2.30;;
59074;SDS011;44860;53.020;6.738;2022-10-16T15:54:04;12.02;;;2.40;;
59074;SDS011;44860;53.020;6.738;2022-10-16T15:56:29;9.50;;;2.20;;
59074;SDS011;44860;53.020;6.738;2022-10-16T15:58:58;9.43;;;1.92;;
59074;SDS011;44860;53.020;6.738;2022-10-16T16:01:25;8.13;;;2.22;;
59074;SDS011;44860;53.020;6.738;2022-10-16T16:03:52;11.07;;;2.47;;
59074;SDS011;44860;53.020;6.738;2022-10-16T16:06:19;9.30;;;2.17;;
59074;SDS011;44860;53.020;6.738;2022-10-16T16:08:44;10.82;;;2.15;;
59074;SDS011;44860;53.020;6.738;2022-10-16T16:11:11;16.33;;;4.22;;
59074;SDS011;44860;53.020;6.738;2022-10-16T16:13:38;10.95;;;4.03;;
59074;SDS011;44860;53.020;6.738;2022-10-16T16:16:08;14.63;;;4.45;;
59074;SDS011;44860;53.020;6.738;2022-10-16T16:18:35;15.20;;;5.05;;
59074;SDS011;44860;53.020;6.738;2022-10-16T16:21:01;15.05;;;4.35;;
59074;SDS011;44860;53.020;6.738;2022-10-16T16:23:27;16.80;;;4.03;;
59074;SDS011;44860;53.020;6.738;2022-10-16T16:26:03;14.00;;;3.00;;
59074;SDS011;44860;53.020;6.738;2022-10-16T16:28:40;11.02;;;2.78;;
59074;SDS011;44860;53.020;6.738;2022-10-16T16:31:07;11.38;;;2.55;;
59074;SDS011;44860;53.020;6.738;2022-10-16T16:33:32;15.07;;;2.50;;
59074;SDS011;44860;53.020;6.738;2022-10-16T16:35:59;12.05;;;2.63;;
59074;SDS011;44860;53.020;6.738;2022-10-16T16:38:27;12.73;;;2.63;;
59074;SDS011;44860;53.020;6.738;2022-10-16T16:40:53;12.07;;;2.90;;
59074;SDS011;44860;53.020;6.738;2022-10-16T16:43:22;12.00;;;2.97;;
59074;SDS011;44860;53.020;6.738;2022-10-16T16:45:48;13.60;;;3.25;;
59074;SDS011;44860;53.020;6.738;2022-10-16T16:48:14;10.00;;;3.10;;
59074;SDS011;44860;53.020;6.738;2022-10-16T16:50:39;10.43;;;2.55;;
59074;SDS011;44860;53.020;6.738;2022-10-16T16:53:05;15.40;;;4.15;;
59074;SDS011;44860;53.020;6.738;2022-10-16T16:55:32;11.57;;;2.63;;
59074;SDS011;44860;53.020;6.738;2022-10-16T16:57:57;10.20;;;2.65;;
59074;SDS011;44860;53.020;6.738;2022-10-16T17:00:23;9.95;;;2.50;;
59074;SDS011;44860;53.020;6.738;2022-10-16T17:02:49;13.18;;;2.60;;